Molina de Segura, Spain
Current Conditions -  °F | °C
As of 10:00 PM on Monday 22 Dec 2014 (Local Time) from LELC Reporting Station
Few Clouds Few Clouds  
Wind Chill: 50°   Ceiling: Unl
Heat Index: 50°   Visibility: 6mi
Dew Point: 48°   Wind: 6mph
Humidity: 94%   Direction: 340°NNW
Pressure: 30.45"   Gusts: NA
Location:  38.05°N, 1.21°W
Report Text: LELC 222100Z 34005KT 320V020 9999 FEW024 10/09 Q1031 NOSIG
Loading
Personal Weather Stations






























Interactive Weather Map New forecast layout! Learn more

10-Day Weather Forecast

Advertisements
Track Severe Weather on mobile